Time;durP1;ratioP1;P1;durP2;ratioP2;P2;SDS_P1;SDS_P2;PMS_P1;PMS_P2;Temp;Humidity;BMP_temperature;BMP_pressure;BME280_temperature;BME280_humidity;BME280_pressure;Samples;Min_cycle;Max_cycle;Signal;HPM_P1;HPM_P2
2023/06/04 00:00:23;;;;;;;3.78;2.85;;;;;;;17.32;97.67;94978.56;5039416;28;20988;-77
2023/06/04 00:02:49;;;;;;;2.88;2.60;;;;;;;17.35;97.37;94988.72;5049656;28;20653;-78
2023/06/04 00:05:14;;;;;;;2.85;2.65;;;;;;;17.30;95.85;94980.66;5041008;28;20635;-77
2023/06/04 00:07:39;;;;;;;4.38;2.97;;;;;;;17.37;95.61;94985.81;5042541;28;20175;-77
2023/06/04 00:10:05;;;;;;;4.90;3.30;;;;;;;17.23;96.33;94961.44;5045259;28;20246;-77
2023/06/04 00:12:31;;;;;;;3.42;2.88;;;;;;;17.14;96.23;94946.94;5049369;28;20654;-77
2023/06/04 00:14:56;;;;;;;2.70;2.38;;;;;;;17.19;95.40;94954.19;5044158;28;20183;-77
2023/06/04 00:17:22;;;;;;;2.88;2.50;;;;;;;17.38;95.03;94981.28;5039192;28;20182;-77
2023/06/04 00:19:47;;;;;;;2.97;2.65;;;;;;;17.37;93.98;94985.81;5046075;28;20233;-77
2023/06/04 00:22:12;;;;;;;3.47;2.37;;;;;;;17.22;92.67;94977.63;5047185;28;20841;-77
2023/06/04 00:24:41;;;;;;;6.30;2.80;;;;;;;17.03;93.37;94955.88;5038740;28;20171;-77
2023/06/04 00:27:08;;;;;;;4.35;2.38;;;;;;;17.07;93.96;94964.97;5041371;28;20199;-78
2023/06/04 00:29:34;;;;;;;3.58;3.00;;;;;;;17.21;94.49;94981.38;5036480;28;20164;-77
2023/06/04 00:31:59;;;;;;;3.23;2.50;;;;;;;17.17;92.74;94981.06;5029942;28;20474;-77
2023/06/04 00:34:25;;;;;;;2.00;1.88;;;;;;;17.11;92.22;94974.06;5048627;28;20676;-77
2023/06/04 00:36:50;;;;;;;2.75;2.55;;;;;;;17.14;92.39;94970.09;5040563;28;20179;-77
2023/06/04 00:39:16;;;;;;;2.70;2.42;;;;;;;17.11;91.66;94974.06;5035274;28;20439;-77
2023/06/04 00:41:41;;;;;;;3.90;2.25;;;;;;;17.06;92.83;94978.50;5042013;28;21082;-78
2023/06/04 00:44:06;;;;;;;4.43;2.80;;;;;;;17.00;93.07;94977.66;5052323;28;20411;-78
2023/06/04 00:46:35;;;;;;;3.72;2.65;;;;;;;16.85;92.65;94942.91;5046641;28;20172;-78
2023/06/04 00:49:01;;;;;;;3.97;2.42;;;;;;;17.00;92.14;94968.88;5048410;28;20222;-78
2023/06/04 00:51:30;;;;;;;4.90;2.47;;;;;;;16.96;92.33;94961.38;5048953;28;20756;-77
2023/06/04 00:53:55;;;;;;;2.60;2.38;;;;;;;17.07;92.30;94969.47;5053841;28;20164;-77
2023/06/04 00:56:20;;;;;;;3.05;2.45;;;;;;;17.07;92.81;94967.63;5044323;28;20669;-78
2023/06/04 00:58:47;;;;;;;2.58;2.38;;;;;;;17.06;92.82;94965.22;5044133;28;20191;-78
2023/06/04 01:01:45;;;;;;;3.20;2.40;;;;;;;16.98;92.76;94956.63;5039685;28;20175;-78
2023/06/04 01:04:17;;;;;;;3.20;2.40;;;;;;;17.04;93.03;94970.00;5032152;28;20452;-77
2023/06/04 01:06:51;;;;;;;3.22;2.22;;;;;;;17.01;91.96;94971.28;5042749;28;20415;-77
2023/06/04 01:09:16;;;;;;;2.67;2.20;;;;;;;16.93;91.88;94969.88;5044624;28;20417;-77
2023/06/04 01:11:42;;;;;;;2.80;2.53;;;;;;;16.91;92.72;94968.50;5038980;28;20183;-78
2023/06/04 01:14:09;;;;;;;2.60;2.27;;;;;;;16.82;92.75;94969.97;5042506;28;20407;-77
2023/06/04 01:16:50;;;;;;;8.07;2.38;;;;;;;16.64;93.31;94954.31;5042466;28;20490;-77
2023/06/04 01:19:21;;;;;;;2.60;2.40;;;;;;;16.74;94.12;94968.56;5041587;28;20433;-78
2023/06/04 01:21:51;;;;;;;3.67;2.93;;;;;;;16.76;94.71;94969.13;5051203;28;20504;-78
2023/06/04 01:24:21;;;;;;;3.35;2.78;;;;;;;16.81;94.38;94971.81;5036297;28;20412;-77
2023/06/04 01:26:46;;;;;;;3.50;2.95;;;;;;;16.79;94.75;94970.47;5043543;28;20765;-77
2023/06/04 01:29:12;;;;;;;3.43;2.37;;;;;;;16.68;94.08;94952.78;5042111;28;20420;-77
2023/06/04 01:31:38;;;;;;;2.90;2.60;;;;;;;16.56;94.14;94956.31;5037437;28;20178;-77
2023/06/04 01:34:07;;;;;;;2.58;2.38;;;;;;;16.56;94.91;94968.81;5039656;28;20414;-77
2023/06/04 01:36:32;;;;;;;5.13;2.30;;;;;;;16.53;95.01;94974.59;5047193;28;20554;-78
2023/06/04 01:38:59;;;;;;;2.90;2.00;;;;;;;16.51;94.97;94985.50;5036972;28;20511;-78
2023/06/04 01:41:25;;;;;;;2.60;2.13;;;;;;;16.50;95.51;94975.09;5047311;28;20448;-77
2023/06/04 01:43:50;;;;;;;2.30;2.10;;;;;;;16.54;95.27;94981.53;5046666;28;20493;-79
2023/06/04 01:46:15;;;;;;;2.53;2.00;;;;;;;16.42;95.44;94981.63;5044728;28;20906;-77
2023/06/04 01:48:41;;;;;;;3.70;2.50;;;;;;;16.27;95.85;94969.97;5048138;28;20979;-77
2023/06/04 01:51:06;;;;;;;2.60;2.30;;;;;;;16.38;96.02;94990.31;5042334;28;20848;-78
2023/06/04 01:53:32;;;;;;;4.47;2.60;;;;;;;16.39;96.90;94979.47;5036856;28;20423;-77
2023/06/04 01:55:58;;;;;;;2.70;2.50;;;;;;;16.52;96.24;94991.59;5042913;28;20490;-77
2023/06/04 01:58:26;;;;;;;2.38;2.17;;;;;;;16.59;95.64;94987.72;5047144;28;20240;-78
2023/06/04 02:00:52;;;;;;;2.60;2.22;;;;;;;16.64;95.03;94986.22;5044024;28;20419;-77
2023/06/04 02:03:18;;;;;;;3.28;2.20;;;;;;;16.65;94.94;94993.13;5047038;28;20634;-77
2023/06/04 02:05:46;;;;;;;2.38;2.10;;;;;;;16.47;95.72;94957.78;5035943;28;20183;-77
2023/06/04 02:08:12;;;;;;;2.67;2.10;;;;;;;16.47;95.11;94963.09;5030460;28;20399;-78
2023/06/04 02:10:37;;;;;;;2.83;2.50;;;;;;;16.62;94.80;94986.44;5038746;28;20921;-78
2023/06/04 02:13:03;;;;;;;3.30;2.30;;;;;;;16.73;94.86;94998.84;5047022;28;20175;-77
2023/06/04 02:15:30;;;;;;;2.60;2.30;;;;;;;16.66;95.10;94997.41;5038047;28;20415;-77
2023/06/04 02:17:58;;;;;;;2.42;2.22;;;;;;;16.53;95.00;95009.94;5045329;28;20423;-77
2023/06/04 02:20:25;;;;;;;2.67;2.28;;;;;;;16.54;95.59;95008.09;5038773;28;20432;-77
2023/06/04 02:22:51;;;;;;;3.75;2.30;;;;;;;16.66;95.44;95010.69;5039211;28;20424;-77
2023/06/04 02:25:18;;;;;;;4.10;2.13;;;;;;;16.60;94.78;95012.47;5040641;28;20419;-78
2023/06/04 02:27:43;;;;;;;3.30;1.90;;;;;;;16.59;95.07;95011.66;5042532;28;20670;-78
2023/06/04 02:30:09;;;;;;;3.57;2.23;;;;;;;16.60;94.61;95010.59;5043519;28;20411;-78
2023/06/04 02:32:35;;;;;;;2.13;1.92;;;;;;;16.68;95.14;95024.56;5035274;28;20176;-77
2023/06/04 02:35:02;;;;;;;4.47;2.30;;;;;;;16.54;95.28;95010.75;5041666;28;20167;-77
2023/06/04 02:37:27;;;;;;;2.72;2.17;;;;;;;16.55;95.92;95026.47;5037664;28;20796;-77
2023/06/04 02:39:52;;;;;;;3.30;2.30;;;;;;;16.54;95.88;95024.03;5040522;28;20432;-77
2023/06/04 02:42:18;;;;;;;2.40;2.13;;;;;;;16.63;95.71;95024.47;5041273;28;20493;-77
2023/06/04 02:44:43;;;;;;;5.03;2.10;;;;;;;16.68;95.34;95030.69;5038462;28;20176;-78
2023/06/04 02:47:09;;;;;;;4.63;2.20;;;;;;;16.69;95.31;95029.59;5048560;28;20419;-78
2023/06/04 02:49:34;;;;;;;2.13;1.90;;;;;;;16.64;95.64;95032.22;5038592;28;20699;-78
2023/06/04 02:52:00;;;;;;;3.45;2.40;;;;;;;16.66;95.72;95031.97;5040831;28;20191;-78
2023/06/04 02:54:25;;;;;;;3.47;2.45;;;;;;;16.70;95.39;95033.06;5038366;28;20261;-77
2023/06/04 02:56:51;;;;;;;2.40;1.95;;;;;;;16.57;95.97;95028.88;5040486;28;20176;-78
2023/06/04 02:59:16;;;;;;;3.10;2.40;;;;;;;16.50;95.96;95018.44;5040404;28;20433;-77
2023/06/04 03:01:42;;;;;;;2.42;2.10;;;;;;;16.68;96.01;95049.28;5044921;28;20406;-78
2023/06/04 03:04:10;;;;;;;2.90;2.58;;;;;;;16.70;95.91;95047.16;5042194;28;20256;-78
2023/06/04 03:06:38;;;;;;;2.42;2.13;;;;;;;16.75;95.95;95047.25;5048218;28;20186;-78
2023/06/04 03:09:03;;;;;;;2.50;2.30;;;;;;;16.78;96.03;95043.28;5047233;28;20258;-78
2023/06/04 03:11:29;;;;;;;5.00;2.30;;;;;;;16.83;96.45;95044.19;5046817;28;20758;-78
2023/06/04 03:13:54;;;;;;;2.55;2.28;;;;;;;16.87;95.32;95036.50;5050318;28;20174;-78
2023/06/04 03:16:20;;;;;;;2.65;2.20;;;;;;;16.86;95.23;95043.72;5046364;28;20175;-78
2023/06/04 03:18:46;;;;;;;4.35;2.45;;;;;;;16.83;95.99;95028.22;5042362;28;20276;-78
2023/06/04 03:21:11;;;;;;;2.40;2.20;;;;;;;16.82;95.20;95025.81;5043827;28;20179;-78
2023/06/04 03:23:37;;;;;;;5.22;2.53;;;;;;;16.94;95.52;95039.81;5044387;28;20639;-77
2023/06/04 03:26:03;;;;;;;4.85;2.30;;;;;;;16.96;95.06;95046.47;5044750;28;20180;-77
2023/06/04 03:28:29;;;;;;;2.60;1.90;;;;;;;16.96;95.48;95043.00;5045649;28;20206;-77
2023/06/04 03:30:55;;;;;;;3.35;2.30;;;;;;;16.80;95.52;95022.59;5046290;28;20196;-77
2023/06/04 03:33:20;;;;;;;5.53;2.55;;;;;;;16.98;94.96;95052.38;5044076;28;20210;-77
2023/06/04 03:35:47;;;;;;;7.30;2.17;;;;;;;16.97;95.15;95058.72;5049433;28;20171;-77
2023/06/04 03:38:13;;;;;;;3.17;2.33;;;;;;;16.96;94.77;95058.97;5044742;28;20164;-77
2023/06/04 03:40:39;;;;;;;2.60;2.30;;;;;;;16.87;95.56;95053.28;5046563;28;20434;-77
2023/06/04 03:43:04;;;;;;;2.95;2.65;;;;;;;16.87;95.90;95055.94;5049065;28;20827;-77
2023/06/04 03:45:30;;;;;;;5.60;2.60;;;;;;;16.86;95.50;95064.19;5040450;28;20749;-77
2023/06/04 03:47:55;;;;;;;3.92;2.80;;;;;;;16.85;96.11;95057.25;5042665;28;20182;-77
2023/06/04 03:50:21;;;;;;;3.15;2.50;;;;;;;16.84;96.02;95067.06;5043973;28;20215;-77
2023/06/04 03:52:48;;;;;;;3.83;2.63;;;;;;;16.83;96.70;95069.97;5040525;28;20231;-77
2023/06/04 03:55:14;;;;;;;2.60;2.10;;;;;;;16.87;96.51;95066.56;5046277;28;20255;-77
2023/06/04 03:57:39;;;;;;;3.20;2.90;;;;;;;16.85;96.68;95066.03;5045428;28;20262;-77
2023/06/04 04:00:06;;;;;;;4.17;2.90;;;;;;;16.83;96.95;95069.97;5044127;28;20436;-77
2023/06/04 04:02:32;;;;;;;3.60;2.88;;;;;;;16.69;97.27;95048.22;5047028;28;20407;-77
2023/06/04 04:04:57;;;;;;;3.47;2.72;;;;;;;16.74;97.82;95071.44;5043510;28;20167;-77
2023/06/04 04:07:24;;;;;;;3.15;2.47;;;;;;;16.73;97.96;95073.28;5043779;28;20177;-77
2023/06/04 04:09:50;;;;;;;4.80;2.85;;;;;;;16.80;97.76;95068.59;5047326;28;20163;-78
2023/06/04 04:12:16;;;;;;;4.57;3.40;;;;;;;16.85;96.89;95073.19;5044020;28;20506;-78
2023/06/04 04:14:42;;;;;;;4.55;3.35;;;;;;;16.72;96.94;95041.63;5042206;28;20433;-78
2023/06/04 04:17:07;;;;;;;4.78;3.05;;;;;;;16.92;97.00;95073.81;5044750;28;20196;-77
2023/06/04 04:19:33;;;;;;;4.22;3.17;;;;;;;16.92;96.29;95079.94;5041621;28;20442;-78
2023/06/04 04:21:58;;;;;;;4.03;3.10;;;;;;;16.92;96.60;95079.16;5043926;28;20282;-78
2023/06/04 04:24:27;;;;;;;4.10;3.50;;;;;;;16.87;97.27;95076.41;5041470;28;20437;-78
2023/06/04 04:26:54;;;;;;;3.60;3.10;;;;;;;16.92;96.71;95081.81;5035801;28;20488;-78
2023/06/04 04:29:22;;;;;;;4.43;3.08;;;;;;;16.92;96.47;95077.28;5042844;28;20498;-77
2023/06/04 04:31:49;;;;;;;4.05;3.30;;;;;;;16.93;96.87;95078.09;5042862;28;20431;-77
2023/06/04 04:34:14;;;;;;;3.58;3.28;;;;;;;16.90;97.22;95074.06;5045266;28;20171;-77
2023/06/04 04:36:40;;;;;;;4.13;3.20;;;;;;;16.91;96.34;95073.03;5039232;28;20174;-78
2023/06/04 04:39:06;;;;;;;3.70;2.75;;;;;;;17.07;96.02;95090.00;5043138;28;20195;-78
2023/06/04 04:41:32;;;;;;;6.40;3.17;;;;;;;16.98;96.15;95073.66;5044820;28;20182;-78
2023/06/04 04:44:04;;;;;;;4.22;3.08;;;;;;;16.97;96.59;95077.34;5046565;28;20176;-78
2023/06/04 04:46:30;;;;;;;4.70;3.33;;;;;;;17.05;97.17;95083.31;5044280;28;20182;-78
2023/06/04 04:48:56;;;;;;;5.72;3.75;;;;;;;17.11;96.89;95088.47;5045632;28;20399;-78
2023/06/04 04:51:21;;;;;;;4.97;3.85;;;;;;;17.15;96.54;95092.22;5047253;28;20222;-78
2023/06/04 04:53:47;;;;;;;5.03;3.50;;;;;;;17.12;96.68;95076.78;5040340;28;20171;-78
2023/06/04 04:56:12;;;;;;;4.55;3.13;;;;;;;17.25;96.86;95086.25;5040323;28;20179;-78
2023/06/04 04:58:38;;;;;;;5.97;3.30;;;;;;;17.23;96.94;95075.03;5040850;28;20655;-78
2023/06/04 05:01:03;;;;;;;3.95;3.20;;;;;;;17.38;96.96;95098.41;5039707;28;20214;-78
2023/06/04 05:03:29;;;;;;;7.32;4.28;;;;;;;17.22;95.13;95078.75;5038977;28;20467;-77
2023/06/04 05:05:54;;;;;;;5.65;4.05;;;;;;;17.42;95.37;95094.97;5039949;28;20174;-78
2023/06/04 05:08:19;;;;;;;4.53;3.72;;;;;;;17.38;94.14;95098.41;5043315;28;20643;-78
2023/06/04 05:10:45;;;;;;;6.75;3.30;;;;;;;17.39;92.76;95092.00;5044184;28;20168;-77
2023/06/04 05:13:11;;;;;;;7.50;3.00;;;;;;;17.21;93.74;95063.84;5041397;28;20646;-76
2023/06/04 05:15:36;;;;;;;6.60;3.45;;;;;;;17.28;94.67;95081.25;5036637;28;20267;-76
2023/06/04 05:18:03;;;;;;;4.95;3.72;;;;;;;17.46;94.71;95100.63;5041432;28;20195;-77
2023/06/04 05:20:29;;;;;;;4.20;3.10;;;;;;;17.53;93.30;95098.59;5045713;28;20211;-77
2023/06/04 05:22:55;;;;;;;4.20;3.58;;;;;;;17.47;91.64;95103.00;5044227;28;20172;-77
2023/06/04 05:25:21;;;;;;;4.25;3.25;;;;;;;17.46;91.62;95105.94;5040209;28;20678;-77
2023/06/04 05:27:49;;;;;;;4.00;3.38;;;;;;;17.41;92.86;95104.00;5042126;28;20263;-77
2023/06/04 05:30:15;;;;;;;7.72;3.70;;;;;;;17.45;92.59;95102.47;5043755;28;20190;-77
2023/06/04 05:32:41;;;;;;;5.50;4.05;;;;;;;17.51;92.77;95098.81;5040434;28;20270;-77
2023/06/04 05:35:07;;;;;;;3.65;3.25;;;;;;;17.53;91.87;95106.56;5043755;28;20327;-77
2023/06/04 05:37:34;;;;;;;5.53;3.72;;;;;;;17.31;92.18;95088.72;5046270;28;20182;-78
2023/06/04 05:40:00;;;;;;;4.82;3.60;;;;;;;17.41;92.04;95109.34;5045049;28;20198;-78
2023/06/04 05:42:25;;;;;;;5.82;3.58;;;;;;;17.12;92.19;95070.66;5046244;28;20182;-77
2023/06/04 05:44:51;;;;;;;7.15;3.85;;;;;;;17.35;91.92;95113.81;5042208;28;20179;-78
2023/06/04 05:47:18;;;;;;;4.93;3.88;;;;;;;17.38;91.92;95117.03;5040598;28;20192;-77
2023/06/04 05:49:44;;;;;;;4.95;3.38;;;;;;;17.46;91.90;95125.38;5044090;28;20310;-77
2023/06/04 05:52:10;;;;;;;4.10;3.67;;;;;;;17.38;91.05;95099.19;5036958;28;20230;-76
2023/06/04 05:54:36;;;;;;;7.25;3.60;;;;;;;17.55;90.25;95128.44;5040955;28;20171;-77
2023/06/04 05:57:02;;;;;;;4.90;3.55;;;;;;;17.49;90.45;95122.22;5045492;28;20258;-76
2023/06/04 05:59:28;;;;;;;9.00;4.03;;;;;;;17.49;89.64;95132.06;5039765;28;20617;-77
2023/06/04 06:01:54;;;;;;;6.35;4.00;;;;;;;17.43;88.55;95133.06;5041119;28;20180;-76
2023/06/04 06:04:20;;;;;;;6.10;3.70;;;;;;;17.43;88.75;95136.53;5044116;28;20171;-78
2023/06/04 06:06:47;;;;;;;7.47;3.72;;;;;;;17.40;89.33;95139.66;5041465;28;20176;-77
2023/06/04 06:09:12;;;;;;;4.15;3.17;;;;;;;17.48;89.59;95135.78;5037898;28;20167;-78
2023/06/04 06:11:38;;;;;;;5.72;3.88;;;;;;;17.54;88.96;95137.47;5040251;28;20232;-78
2023/06/04 06:14:03;;;;;;;5.90;3.70;;;;;;;17.60;89.05;95141.78;5044784;28;20210;-79
2023/06/04 06:16:28;;;;;;;5.85;3.92;;;;;;;17.69;89.46;95148.34;5042754;28;20159;-81
2023/06/04 06:18:54;;;;;;;6.97;4.28;;;;;;;17.44;88.00;95086.75;5051932;28;20190;-80
2023/06/04 06:21:20;;;;;;;6.90;4.07;;;;;;;17.78;87.55;95138.84;5043325;28;20174;-79
2023/06/04 06:23:45;;;;;;;6.60;4.18;;;;;;;17.82;87.46;95126.63;5043404;28;20182;-77
2023/06/04 06:26:11;;;;;;;5.75;3.90;;;;;;;18.05;87.72;95144.22;5035109;28;20237;-78
2023/06/04 06:28:39;;;;;;;8.55;4.10;;;;;;;18.04;88.37;95135.44;5037498;28;20160;-77
2023/06/04 06:31:04;;;;;;;8.27;3.78;;;;;;;18.17;86.97;95138.72;5038123;28;20206;-77
2023/06/04 06:33:31;;;;;;;4.97;4.00;;;;;;;18.04;85.69;95140.75;5041954;28;20708;-78
2023/06/04 06:35:59;;;;;;;10.45;4.65;;;;;;;18.11;86.66;95143.22;5042031;28;20233;-78
2023/06/04 06:38:25;;;;;;;5.15;3.88;;;;;;;18.12;86.13;95118.19;5042753;28;20164;-77
2023/06/04 06:40:51;;;;;;;5.30;3.47;;;;;;;18.20;85.57;95133.72;5045891;28;20556;-77
2023/06/04 06:43:16;;;;;;;4.88;3.58;;;;;;;18.41;85.40;95142.72;5047363;28;20186;-77
2023/06/04 06:45:42;;;;;;;9.38;3.97;;;;;;;18.59;83.75;95154.94;5042338;28;20271;-77
2023/06/04 06:48:07;;;;;;;8.18;4.40;;;;;;;18.64;82.73;95153.09;5047149;28;20183;-77
2023/06/04 06:50:35;;;;;;;6.18;3.67;;;;;;;18.67;83.60;95157.13;5043709;28;20203;-78
2023/06/04 06:53:01;;;;;;;5.03;3.83;;;;;;;18.58;83.43;95131.97;5041501;28;20285;-77
2023/06/04 06:55:26;;;;;;;6.05;3.88;;;;;;;18.74;82.97;95157.72;5040727;28;20203;-77
2023/06/04 06:57:52;;;;;;;5.88;3.75;;;;;;;18.69;82.91;95141.66;5047981;28;20231;-77
2023/06/04 07:00:18;;;;;;;8.05;4.03;;;;;;;18.86;83.29;95158.34;5046944;28;20199;-77
2023/06/04 07:02:43;;;;;;;9.80;3.90;;;;;;;18.88;82.33;95160.75;5044536;28;20188;-77
2023/06/04 07:05:09;;;;;;;6.53;3.90;;;;;;;18.89;80.75;95165.03;5049449;28;20171;-78
2023/06/04 07:07:35;;;;;;;8.73;3.78;;;;;;;18.89;81.21;95157.84;5047431;28;20249;-78
2023/06/04 07:10:00;;;;;;;8.30;3.85;;;;;;;18.92;81.49;95167.22;5051735;28;20285;-78
2023/06/04 07:12:26;;;;;;;8.80;3.72;;;;;;;18.85;81.14;95148.75;5046051;28;20182;-79
2023/06/04 07:14:51;;;;;;;6.25;3.60;;;;;;;18.95;80.84;95156.81;5041167;28;20184;-78
2023/06/04 07:17:16;;;;;;;5.95;4.22;;;;;;;19.01;80.95;95179.81;5044039;28;20176;-78
2023/06/04 07:19:42;;;;;;;6.35;3.33;;;;;;;18.89;80.85;95167.72;5042552;28;20698;-78
2023/06/04 07:22:07;;;;;;;5.93;3.97;;;;;;;19.01;83.27;95179.03;5035148;28;20168;-78
2023/06/04 07:24:32;;;;;;;6.85;4.35;;;;;;;18.95;82.10;95180.81;5034875;28;20177;-78
2023/06/04 07:26:58;;;;;;;5.20;4.28;;;;;;;18.92;83.22;95175.22;5034645;28;20199;-78
2023/06/04 07:29:23;;;;;;;5.13;3.88;;;;;;;19.14;83.16;95181.25;5041474;28;20171;-79
2023/06/04 07:31:49;;;;;;;7.68;4.53;;;;;;;19.19;82.10;95187.44;5036914;28;20267;-77
2023/06/04 07:34:14;;;;;;;8.75;3.95;;;;;;;19.14;82.22;95189.25;5045023;28;20703;-78
2023/06/04 07:36:40;;;;;;;6.82;4.80;;;;;;;19.25;82.79;95182.94;5044087;28;20243;-79
2023/06/04 07:39:05;;;;;;;7.15;4.57;;;;;;;19.26;81.95;95199.75;5043487;28;20246;-79
2023/06/04 07:41:31;;;;;;;8.02;4.80;;;;;;;19.16;82.98;95189.81;5042157;28;20203;-79
2023/06/04 07:43:56;;;;;;;5.75;4.45;;;;;;;19.24;82.62;95173.31;5043807;28;20187;-80
2023/06/04 07:46:22;;;;;;;8.07;4.65;;;;;;;19.48;82.91;95189.78;5038831;28;20714;-82
2023/06/04 07:48:47;;;;;;;5.90;4.30;;;;;;;19.64;81.59;95198.69;5034645;28;20179;-83
2023/06/04 07:51:13;;;;;;;6.18;4.68;;;;;;;19.70;80.17;95200.34;5032018;28;20227;-83
2023/06/04 07:53:39;;;;;;;7.47;4.65;;;;;;;19.55;81.88;95199.16;5034552;28;20160;-81
2023/06/04 07:56:06;;;;;;;7.82;4.90;;;;;;;19.65;81.99;95203.78;5049553;28;20262;-82
2023/06/04 07:58:31;;;;;;;6.72;4.32;;;;;;;19.46;80.25;95181.22;5034700;28;20218;-81
2023/06/04 08:00:57;;;;;;;7.63;4.35;;;;;;;19.68;82.40;95205.94;5034497;28;20228;-81
2023/06/04 08:03:23;;;;;;;10.77;5.53;;;;;;;19.64;81.26;95177.31;5039715;28;20170;-80
2023/06/04 08:05:48;;;;;;;7.35;4.78;;;;;;;20.03;80.54;95215.19;5043393;28;20639;-81
2023/06/04 08:08:14;;;;;;;8.75;4.85;;;;;;;20.10;81.42;95208.53;5041656;28;20171;-83
2023/06/04 08:10:40;;;;;;;11.75;5.88;;;;;;;20.18;79.47;95201.88;5043406;28;20175;-84
2023/06/04 08:13:05;;;;;;;9.15;5.88;;;;;;;19.98;77.57;95182.00;5041977;28;20191;-82
2023/06/04 08:15:30;;;;;;;9.75;5.50;;;;;;;20.11;77.69;95215.50;5034353;28;20643;-81
2023/06/04 08:17:59;;;;;;;11.43;5.30;;;;;;;19.79;78.29;95172.88;5036225;28;20668;-81
2023/06/04 08:20:25;;;;;;;12.23;5.45;;;;;;;19.96;78.22;95192.19;5039547;28;20196;-86
2023/06/04 08:22:50;;;;;;;12.13;5.82;;;;;;;20.18;78.35;95217.91;5044301;28;20262;-80
2023/06/04 08:25:16;;;;;;;11.18;6.35;;;;;;;20.05;78.43;95219.22;5043623;28;20258;-79
2023/06/04 08:27:42;;;;;;;11.65;5.90;;;;;;;20.26;78.54;95231.59;5041665;28;20168;-79
2023/06/04 08:30:08;;;;;;;12.50;7.05;;;;;;;20.25;77.76;95223.81;5044878;28;20165;-80
2023/06/04 08:32:34;;;;;;;10.18;6.20;;;;;;;20.01;77.40;95222.66;5044066;28;20170;-79
2023/06/04 08:34:59;;;;;;;8.43;6.22;;;;;;;19.96;79.14;95199.41;5042659;28;20163;-79
2023/06/04 08:37:25;;;;;;;9.32;6.40;;;;;;;20.22;78.34;95221.69;5044956;28;20184;-82
2023/06/04 08:39:50;;;;;;;9.43;6.50;;;;;;;20.33;79.56;95212.63;5038835;28;20322;-78
2023/06/04 08:42:22;;;;;;;11.32;6.93;;;;;;;20.47;77.75;95221.81;5046690;28;20222;-75
2023/06/04 08:44:53;;;;;;;10.93;6.32;;;;;;;20.58;75.60;95218.06;5044046;28;20172;-85
2023/06/04 08:47:22;;;;;;;8.65;5.82;;;;;;;20.49;75.61;95233.06;5043535;28;20549;-78
2023/06/04 08:49:50;;;;;;;8.52;5.82;;;;;;;20.42;77.21;95212.94;5043085;28;20172;-77
2023/06/04 08:52:16;;;;;;;7.35;5.53;;;;;;;20.67;76.10;95232.53;5033328;28;20231;-78
2023/06/04 08:54:41;;;;;;;11.45;6.55;;;;;;;20.75;75.95;95230.44;5040225;28;20180;-78
2023/06/04 08:57:08;;;;;;;11.45;6.15;;;;;;;20.84;75.58;95242.22;5046839;28;20254;-78
2023/06/04 08:59:35;;;;;;;8.13;5.95;;;;;;;20.58;76.48;95219.97;5044153;28;20284;-77
2023/06/04 09:02:01;;;;;;;9.23;5.25;;;;;;;19.93;75.40;95152.63;5040175;28;20187;-80
2023/06/04 09:04:28;;;;;;;8.43;5.60;;;;;;;20.26;76.55;95252.97;5042333;28;20179;-76
2023/06/04 09:06:54;;;;;;;10.80;5.72;;;;;;;20.08;77.42;95241.94;5038670;28;20634;-81
2023/06/04 09:09:23;;;;;;;9.88;6.25;;;;;;;19.98;77.52;95220.53;5042265;28;20176;-85
2023/06/04 09:11:52;;;;;;;9.52;6.00;;;;;;;20.02;76.85;95248.31;5038318;28;20171;-79
2023/06/04 09:14:18;;;;;;;10.18;6.45;;;;;;;20.04;77.85;95243.53;5033386;28;20560;-78
2023/06/04 09:16:55;;;;;;;14.82;5.88;;;;;;;19.81;77.51;95226.84;5032761;28;20180;-78
2023/06/04 09:19:21;;;;;;;7.82;5.72;;;;;;;19.86;78.30;95220.72;5034008;28;20199;-78
2023/06/04 09:21:51;;;;;;;9.95;5.95;;;;;;;20.19;76.67;95249.75;5048133;28;20539;-79
2023/06/04 09:24:18;;;;;;;9.68;6.05;;;;;;;20.24;77.11;95244.41;5044045;28;20254;-78
2023/06/04 09:26:43;;;;;;;8.15;5.85;;;;;;;20.23;77.14;95232.13;5039542;28;20172;-78
2023/06/04 09:29:09;;;;;;;8.82;5.57;;;;;;;20.17;76.14;95206.41;5042744;28;20237;-78
2023/06/04 09:31:38;;;;;;;11.35;6.40;;;;;;;20.52;76.22;95245.06;5037129;28;20188;-79
2023/06/04 09:34:03;;;;;;;8.35;5.57;;;;;;;20.62;73.54;95243.25;5039135;28;20215;-79
2023/06/04 09:36:33;;;;;;;10.18;6.53;;;;;;;20.43;73.72;95247.47;5041269;28;20211;-78
2023/06/04 09:38:59;;;;;;;12.82;7.40;;;;;;;20.55;73.96;95228.50;5039812;28;20206;-81
2023/06/04 09:41:26;;;;;;;8.05;5.90;;;;;;;20.68;74.05;95254.75;5041571;28;20176;-79
2023/06/04 09:44:00;;;;;;;10.00;6.80;;;;;;;20.65;73.21;95217.84;5039755;28;20992;-79
2023/06/04 09:46:25;;;;;;;10.55;7.15;;;;;;;20.38;73.11;95235.94;5031307;28;20663;-81
2023/06/04 09:49:00;;;;;;;12.90;7.15;;;;;;;20.42;73.52;95235.16;5032579;28;20168;-80
2023/06/04 09:51:26;;;;;;;11.02;6.90;;;;;;;20.34;73.47;95241.81;5032210;28;20231;-80
2023/06/04 09:54:03;;;;;;;10.65;6.93;;;;;;;20.29;74.66;95235.63;5032502;28;20766;-81
2023/06/04 09:56:29;;;;;;;10.27;7.38;;;;;;;20.51;74.47;95241.59;5032763;28;20152;-81
2023/06/04 09:58:57;;;;;;;12.63;7.10;;;;;;;20.52;74.29;95243.22;5036170;28;20186;-80
2023/06/04 10:01:26;;;;;;;11.82;7.00;;;;;;;20.36;74.35;95236.22;5040669;28;20191;-81
2023/06/04 10:03:53;;;;;;;10.73;7.85;;;;;;;20.65;74.54;95241.91;5041672;28;20175;-82
2023/06/04 10:06:22;;;;;;;12.50;6.50;;;;;;;20.91;72.22;95245.44;5041796;28;20168;-80
2023/06/04 10:08:52;;;;;;;9.35;6.53;;;;;;;20.96;72.66;95224.84;5052949;28;20168;-81
2023/06/04 10:11:33;;;;;;;11.40;7.15;;;;;;;20.98;71.75;95260.19;5038613;28;20226;-81
2023/06/04 10:14:04;;;;;;;13.25;6.93;;;;;;;20.94;72.86;95239.53;5031766;28;20606;-82
2023/06/04 10:16:31;;;;;;;10.45;6.63;;;;;;;21.24;73.80;95242.28;5032182;28;20148;-83
2023/06/04 10:18:58;;;;;;;11.07;6.53;;;;;;;21.34;72.19;95247.66;5031998;28;20171;-82
2023/06/04 10:21:25;;;;;;;10.02;6.70;;;;;;;21.02;71.14;95228.31;5030936;28;20164;-82
2023/06/04 10:23:51;;;;;;;9.10;6.70;;;;;;;21.25;76.04;95241.22;5032016;28;20167;-82
2023/06/04 10:26:18;;;;;;;8.45;6.00;;;;;;;21.36;70.61;95240.13;5032046;28;20155;-82
2023/06/04 10:28:43;;;;;;;8.68;6.32;;;;;;;21.33;72.69;95210.41;5038010;28;20172;-82
2023/06/04 10:31:10;;;;;;;8.73;5.30;;;;;;;21.29;70.06;95250.31;5039837;28;20175;-82
2023/06/04 10:33:37;;;;;;;11.10;5.90;;;;;;;21.29;70.57;95246.84;5039165;28;20186;-81
2023/06/04 10:36:24;;;;;;;8.77;5.30;;;;;;;21.28;71.30;95240.66;5041059;28;20171;-82
2023/06/04 10:38:54;;;;;;;9.48;5.97;;;;;;;21.41;72.86;95232.09;5041065;28;20256;-82
2023/06/04 10:41:21;;;;;;;12.07;5.53;;;;;;;21.44;72.25;95220.88;5037699;28;20246;-82
2023/06/04 10:43:49;;;;;;;7.78;5.03;;;;;;;21.13;70.20;95203.16;5032066;28;20198;-82
2023/06/04 10:46:16;;;;;;;9.68;5.30;;;;;;;21.31;70.07;95245.50;5043147;28;20639;-81
2023/06/04 10:48:59;;;;;;;6.30;4.70;;;;;;;21.25;69.90;95238.53;5038100;28;20243;-84
2023/06/04 10:51:33;;;;;;;8.82;5.35;;;;;;;21.22;70.12;95232.91;5039269;28;21073;-83
2023/06/04 10:53:59;;;;;;;7.78;5.15;;;;;;;21.19;70.21;95238.81;5042485;28;20164;-85
2023/06/04 10:56:31;;;;;;;10.52;5.90;;;;;;;20.75;70.08;95169.69;5042882;28;20187;-85
2023/06/04 10:58:58;;;;;;;10.77;5.50;;;;;;;20.85;71.78;95193.75;5036201;28;20186;-86
2023/06/04 11:01:31;;;;;;;8.07;5.53;;;;;;;21.06;72.11;95232.88;5039703;28;20539;-85
2023/06/04 11:03:57;;;;;;;11.90;6.30;;;;;;;20.83;72.12;95197.78;5038584;28;20179;-86
2023/06/04 11:06:26;;;;;;;9.30;5.97;;;;;;;21.15;72.46;95235.81;5047298;28;20174;-86
2023/06/04 11:09:02;;;;;;;8.55;5.05;;;;;;;20.97;71.44;95190.84;5051667;28;20669;-86
2023/06/04 11:11:27;;;;;;;8.82;5.70;;;;;;;20.75;71.08;95185.75;5051687;28;20155;-86
2023/06/04 11:13:54;;;;;;;6.03;4.95;;;;;;;20.65;71.85;95175.84;5048640;28;20171;-87
2023/06/04 11:16:22;;;;;;;9.20;6.63;;;;;;;20.99;72.96;95229.66;5031842;28;20259;-84
2023/06/04 11:18:55;;;;;;;5.97;5.05;;;;;;;20.78;72.50;95205.81;5045582;28;20251;-86
2023/06/04 11:21:21;;;;;;;11.70;6.05;;;;;;;20.71;73.05;95179.31;5037915;28;20226;-85
2023/06/04 11:23:46;;;;;;;7.47;5.78;;;;;;;20.77;72.51;95166.72;5039312;28;20603;-86
2023/06/04 11:26:12;;;;;;;7.65;6.00;;;;;;;20.98;72.88;95193.25;5040007;28;20175;-85
2023/06/04 11:28:40;;;;;;;7.53;5.85;;;;;;;21.26;71.16;95231.31;5049333;28;20171;-83